| time (UTC) | temp C | wind direction | speed KPH | gust KPH | rain 1hr cm | rain 24hr cm | rain mn cm | humidity % | barometer mb |
| 20260507105635 | 9 | 319 | 0.0 | 0.0 | 0.00 | 0.53 | 0.53 | 99 | 1011.0 |
| 20260507105131 | 9 | 343 | 0.0 | 0.0 | 0.00 | 0.53 | 0.53 | 99 | 1010.8 |
| 20260507104629 | 8 | 11 | 0.0 | 0.0 | 0.00 | 0.53 | 0.53 | 99 | 1010.6 |
| 20260507104125 | 8 | 23 | 0.0 | 0.0 | 0.00 | 0.53 | 0.53 | 99 | 1010.6 |
| 20260507103621 | 8 | 19 | 0.0 | 0.0 | 0.00 | 0.53 | 0.53 | 99 | 1010.7 |
| 20260507103118 | 8 | 20 | 0.0 | 0.0 | 0.13 | 0.53 | 0.53 | 99 | 1010.6 |
| 20260507102615 | 8 | 20 | 0.0 | 0.0 | 0.00 | 0.51 | 0.51 | 99 | 1010.9 |
| 20260507102111 | 8 | 19 | 0.0 | 0.0 | 0.00 | 0.51 | 0.51 | 99 | 1011.0 |
| 20260507101607 | 8 | 16 | 0.0 | 0.0 | 0.00 | 0.51 | 0.51 | 99 | 1011.1 |
| 20260507101103 | 8 | 16 | 0.0 | 0.0 | 0.18 | 0.51 | 0.51 | 99 | 1011.3 |
| 20260507100600 | 8 | 323 | 0.0 | 0.0 | 0.13 | 0.48 | 0.48 | 99 | 1010.8 |
| 20260507100058 | 8 | 30 | 0.0 | 0.0 | 0.13 | 0.48 | 0.48 | 99 | 1010.8 |
| 20260507095556 | 8 | 22 | 0.0 | 0.0 | 0.00 | 0.46 | 0.46 | 99 | 1010.8 |
| 20260507095052 | 8 | 25 | 0.0 | 0.0 | 0.00 | 0.46 | 0.46 | 99 | 1010.9 |
| 20260507094548 | 8 | 6 | 0.0 | 0.0 | 0.18 | 0.46 | 0.46 | 99 | 1010.9 |
| 20260507094046 | 8 | 292 | 1.6 | 1.6 | 0.18 | 0.46 | 0.46 | 99 | 1010.6 |
| 20260507093543 | 8 | 14 | 0.0 | 0.0 | 0.00 | 0.43 | 0.43 | 99 | 1010.1 |
| 20260507093042 | 8 | 19 | 0.0 | 0.0 | 0.13 | 0.43 | 0.43 | 99 | 1010.3 |
| 20260507092537 | 8 | 9 | 0.0 | 0.0 | 0.18 | 0.41 | 0.41 | 99 | 1010.7 |
| 20260507092035 | 8 | 353 | 0.0 | 3.2 | 0.18 | 0.41 | 0.41 | 99 | 1010.5 |
| 20260507091531 | 8 | 0 | 0.0 | 0.0 | 0.00 | 0.38 | 0.38 | 99 | 1010.5 |
| 20260507091027 | 8 | 13 | 0.0 | 0.0 | 0.00 | 0.38 | 0.38 | 99 | 1010.4 |
| 20260507090523 | 9 | 10 | 0.0 | 0.0 | 0.00 | 0.38 | 0.38 | 99 | 1010.2 |
| 20260507090020 | 9 | 315 | 0.0 | 0.0 | 0.13 | 0.38 | 0.38 | 99 | 1010.4 |
| 20260507085518 | 9 | 20 | 0.0 | 0.0 | 0.30 | 0.38 | 0.38 | 99 | 1010.4 |
| 20260507085014 | 9 | 23 | 0.0 | 1.6 | 0.30 | 0.36 | 0.36 | 99 | 1010.4 |
| 20260507084511 | 9 | 13 | 0.0 | 1.6 | 0.13 | 0.33 | 0.33 | 99 | 1010.4 |
| 20260507084008 | 9 | 9 | 0.0 | 1.6 | 0.18 | 0.30 | 0.30 | 99 | 1010.5 |
| 20260507083504 | 9 | 7 | 0.0 | 0.0 | 0.36 | 0.30 | 0.30 | 99 | 1010.6 |
| 20260507083001 | 9 | 19 | 0.0 | 0.0 | 0.30 | 0.28 | 0.28 | 98 | 1010.4 |
| 20260507082457 | 10 | 8 | 0.0 | 0.0 | 0.30 | 0.25 | 0.25 | 98 | 1010.2 |
| 20260507081953 | 10 | 6 | 0.0 | 0.0 | 0.30 | 0.23 | 0.23 | 98 | 1010.5 |
| 20260507081449 | 10 | 5 | 0.0 | 0.0 | 0.13 | 0.20 | 0.20 | 97 | 1010.2 |
| 20260507080947 | 10 | 8 | 0.0 | 0.0 | 0.18 | 0.18 | 0.18 | 97 | 1010.2 |
| 20260507080442 | 10 | 25 | 0.0 | 0.0 | 0.18 | 0.18 | 0.18 | 97 | 1010.4 |
| 20260507075938 | 10 | 18 | 0.0 | 0.0 | 0.13 | 0.15 | 0.15 | 97 | 1010.5 |
| 20260507075435 | 10 | 7 | 0.0 | 1.6 | 0.13 | 0.15 | 0.15 | 96 | 1011.0 |
| 20260507074931 | 10 | 9 | 0.0 | 1.6 | 0.00 | 0.13 | 0.13 | 96 | 1010.7 |
| 20260507074428 | 10 | 26 | 1.6 | 3.2 | 0.18 | 0.13 | 0.13 | 95 | 1010.4 |
| 20260507073926 | 10 | 346 | 1.6 | 1.6 | 0.30 | 0.13 | 0.13 | 94 | 1010.5 |
| 20260507073422 | 11 | 4 | 0.0 | 3.2 | 0.30 | 0.10 | 0.10 | 93 | 1010.3 |
| 20260507072919 | 11 | 238 | 3.2 | 4.8 | 0.30 | 0.08 | 0.08 | 91 | 1010.5 |
| 20260507072417 | 11 | 249 | 4.8 | 4.8 | 0.13 | 0.05 | 0.05 | 90 | 1010.1 |
| 20260507071914 | 11 | 356 | 0.0 | 3.2 | 0.00 | 0.03 | 0.03 | 89 | 1009.8 |
| 20260507071411 | 11 | 7 | 1.6 | 1.6 | 0.00 | 0.03 | 0.03 | 89 | 1009.5 |
| 20260507070907 | 12 | 8 | 0.0 | 1.6 | 0.00 | 0.03 | 0.03 | 88 | 1009.4 |
| 20260507070405 | 11 | 346 | 1.6 | 1.6 | 0.00 | 0.03 | 0.03 | 87 | 1009.0 |
| 20260507065901 | 12 | 4 | 1.6 | 1.6 | 0.00 | 0.03 | 0.03 | 86 | 1009.2 |
| 20260507065358 | 12 | 347 | 3.2 | 4.8 | 0.00 | 0.03 | 0.03 | 87 | 1009.3 |
| 20260507064855 | 12 | 2 | 1.6 | 3.2 | 0.00 | 0.03 | 0.03 | 87 | 1009.6 |
| 20260507064353 | 12 | 336 | 1.6 | 3.2 | 0.00 | 0.03 | 0.03 | 88 | 1009.6 |
| 20260507063851 | 12 | 352 | 1.6 | 3.2 | 0.00 | 0.03 | 0.03 | 89 | 1009.3 |
| 20260507063348 | 12 | 13 | 0.0 | 4.8 | 0.00 | 0.03 | 0.03 | 92 | 1009.5 |
| 20260507062845 | 12 | 10 | 0.0 | 1.6 | 0.00 | 0.03 | 0.03 | 96 | 1009.5 |
| 20260507062341 | 13 | 21 | 1.6 | 3.2 | 0.00 | 0.03 | 0.03 | 96 | 1009.4 |
| 20260507061839 | 13 | 17 | 1.6 | 1.6 | 0.00 | 0.03 | 0.03 | 96 | 1009.3 |
| 20260507061337 | 13 | 11 | 0.0 | 0.0 | 0.00 | 0.03 | 0.03 | 96 | 1009.3 |
| 20260507060835 | 13 | 18 | 0.0 | 1.6 | 0.00 | 0.03 | 0.03 | 96 | 1009.4 |
| 20260507060332 | 13 | 330 | 1.6 | 1.6 | 0.00 | 0.03 | 0.03 | 96 | 1009.4 |
| 20260507055829 | 13 | 58 | 0.0 | 3.2 | 0.00 | 0.03 | 0.03 | 96 | 1009.5 |
| 20260507055324 | 13 | 0 | 0.0 | 1.6 | 0.00 | 0.03 | 0.03 | 96 | 1009.7 |
| 20260507054821 | 13 | 359 | 1.6 | 1.6 | 0.00 | 0.03 | 0.03 | 95 | 1009.8 |
| 20260507054316 | 13 | 322 | 1.6 | 4.8 | 0.00 | 0.03 | 0.03 | 95 | 1009.7 |
| 20260507053814 | 13 | 264 | 3.2 | 4.8 | 0.00 | 0.03 | 0.03 | 95 | 1009.8 |
| 20260507053312 | 13 | 3 | 0.0 | 4.8 | 0.00 | 0.03 | 0.03 | 95 | 1009.9 |
| 20260507052811 | 13 | 12 | 0.0 | 0.0 | 0.00 | 0.03 | 0.03 | 95 | 1010.1 |
| 20260507052307 | 13 | 239 | 8.0 | 11.3 | 0.00 | 0.03 | 0.03 | 94 | 1010.1 |
| 20260507051805 | 13 | 315 | 4.8 | 8.0 | 0.00 | 0.03 | 0.03 | 95 | 1009.9 |
| 20260507051302 | 13 | 9 | 0.0 | 3.2 | 0.00 | 0.03 | 0.03 | 95 | 1009.8 |
| 20260507050758 | 13 | 323 | 4.8 | 9.7 | 0.00 | 0.03 | 0.03 | 96 | 1009.8 |
| 20260507050255 | 13 | 342 | 3.2 | 4.8 | 0.00 | 0.03 | 0.03 | 97 | 1009.4 |
| 20260507045752 | 13 | 300 | 3.2 | 11.3 | 0.00 | 0.03 | 0.03 | 98 | 1009.7 |
| 20260507045248 | 14 | 237 | 1.6 | 9.7 | 0.00 | 0.03 | 0.03 | 99 | 1009.9 |
| 20260507044746 | 14 | 11 | 0.0 | 0.0 | 0.00 | 0.03 | 0.03 | 99 | 1009.7 |
| 20260507044241 | 15 | 294 | 4.8 | 4.8 | 0.00 | 0.03 | 0.03 | 99 | 1009.7 |
| 20260507043738 | 15 | 346 | 0.0 | 3.2 | 0.00 | 0.03 | 0.03 | 99 | 1009.7 |
| 20260507043235 | 15 | 355 | 1.6 | 8.0 | 0.00 | 0.03 | 0.03 | 99 | 1009.6 |
| 20260507042731 | 15 | 340 | 1.6 | 3.2 | 0.00 | 0.03 | 0.03 | 99 | 1009.7 |
| 20260507042226 | 15 | 287 | 4.8 | 4.8 | 0.00 | 0.03 | 0.03 | 99 | 1009.6 |
| 20260507041724 | 15 | 261 | 3.2 | 4.8 | 0.00 | 0.03 | 0.03 | 99 | 1009.5 |
| 20260507041220 | 15 | 21 | 0.0 | 4.8 | 0.00 | 0.03 | 0.03 | 99 | 1009.6 |
| 20260507040718 | 15 | 264 | 1.6 | 3.2 | 0.18 | 0.03 | 0.03 | 99 | 1009.7 |
| 20260507040213 | 15 | 347 | 1.6 | 1.6 | 0.18 | 0.03 | 0.03 | 99 | 1009.6 |
| 20260507035710 | 15 | 4 | 0.0 | 4.8 | 0.00 | 0.18 | 0.18 | 99 | 1009.7 |
| 20260507035205 | 15 | 276 | 6.4 | 8.0 | 0.00 | 0.18 | 0.18 | 98 | 1009.6 |
| 20260507034702 | 15 | 278 | 1.6 | 3.2 | 0.00 | 0.18 | 0.18 | 98 | 1009.8 |
| 20260507034200 | 15 | 278 | 8.0 | 12.9 | 0.00 | 0.18 | 0.18 | 98 | 1009.9 |
| 20260507033658 | 15 | 304 | 6.4 | 9.7 | 0.00 | 0.18 | 0.18 | 97 | 1009.8 |
| 20260507033155 | 15 | 340 | 3.2 | 4.8 | 0.00 | 0.18 | 0.18 | 97 | 1009.7 |
| 20260507032653 | 15 | 318 | 6.4 | 9.7 | 0.00 | 0.18 | 0.18 | 97 | 1009.5 |
| 20260507032148 | 15 | 245 | 4.8 | 4.8 | 0.00 | 0.18 | 0.18 | 97 | 1009.5 |
| 20260507031645 | 15 | 313 | 11.3 | 12.9 | 0.00 | 0.18 | 0.18 | 97 | 1009.5 |
| 20260507031142 | 15 | 281 | 3.2 | 9.7 | 0.00 | 0.18 | 0.18 | 98 | 1009.5 |
| 20260507030638 | 15 | 246 | 9.7 | 11.3 | 0.00 | 0.18 | 0.18 | 98 | 1009.5 |
| 20260507030137 | 15 | 279 | 3.2 | 9.7 | 0.00 | 0.18 | 0.18 | 98 | 1009.2 |
| 20260507025633 | 15 | 350 | 1.6 | 9.7 | 0.00 | 0.18 | 0.18 | 98 | 1009.2 |
| 20260507025130 | 15 | 274 | 6.4 | 11.3 | 0.00 | 0.18 | 0.18 | 98 | 1009.4 |
| 20260507024628 | 15 | 294 | 1.6 | 9.7 | 0.00 | 0.18 | 0.18 | 98 | 1009.4 |
| 20260507024125 | 15 | 306 | 6.4 | 9.7 | 0.00 | 0.18 | 0.18 | 98 | 1009.3 |
| 20260507023621 | 15 | 205 | 11.3 | 17.7 | 0.00 | 0.18 | 0.18 | 98 | 1009.3 |
| 20260507023119 | 15 | 342 | 1.6 | 8.0 | 0.00 | 0.18 | 0.18 | 98 | 1009.2 |
| 20260507022615 | 15 | 325 | 1.6 | 8.0 | 0.00 | 0.18 | 0.18 | 98 | 1009.3 |
| 20260507022110 | 15 | 245 | 6.4 | 8.0 | 0.00 | 0.18 | 0.18 | 98 | 1009.5 |
| 20260507021607 | 15 | 307 | 3.2 | 8.0 | 0.00 | 0.18 | 0.18 | 98 | 1009.3 |
| 20260507021103 | 15 | 237 | 8.0 | 11.3 | 0.00 | 0.18 | 0.18 | 98 | 1009.4 |
| 20260507020602 | 15 | 279 | 1.6 | 11.3 | 0.00 | 0.18 | 0.18 | 98 | 1009.3 |
| 20260507020057 | 15 | 319 | 4.8 | 11.3 | 0.00 | 0.18 | 0.18 | 99 | 1009.4 |
| 20260507015556 | 15 | 284 | 4.8 | 14.5 | 0.00 | 0.18 | 0.18 | 99 | 1009.4 |
| 20260507015053 | 15 | 103 | 3.2 | 4.8 | 0.00 | 0.18 | 0.18 | 99 | 1009.3 |
| 20260507014549 | 15 | 278 | 0.0 | 9.7 | 0.00 | 0.18 | 0.18 | 99 | 1009.3 |
| 20260507014045 | 15 | 274 | 8.0 | 11.3 | 0.00 | 0.18 | 0.18 | 99 | 1009.3 |
| 20260507013542 | 14 | 267 | 1.6 | 9.7 | 0.00 | 0.18 | 0.18 | 99 | 1009.4 |
| 20260507013039 | 14 | 122 | 1.6 | 16.1 | 0.00 | 0.18 | 0.18 | 99 | 1009.3 |
| 20260507012536 | 14 | 300 | 3.2 | 11.3 | 0.00 | 0.18 | 0.18 | 99 | 1009.7 |
| 20260507012032 | 14 | 271 | 4.8 | 11.3 | 0.00 | 0.18 | 0.18 | 99 | 1009.7 |
| 20260507011530 | 14 | 292 | 4.8 | 12.9 | 0.00 | 0.18 | 0.18 | 99 | 1009.8 |
| 20260507011026 | 14 | 305 | 3.2 | 11.3 | 0.00 | 0.18 | 0.18 | 99 | 1009.7 |
| 20260507010520 | 14 | 251 | 4.8 | 14.5 | 0.00 | 0.18 | 0.18 | 99 | 1009.6 |
| 20260507010017 | 14 | 287 | 6.4 | 8.0 | 0.00 | 0.18 | 0.18 | 99 | 1009.8 |
| 20260507005515 | 14 | 288 | 6.4 | 16.1 | 0.00 | 0.18 | 0.18 | 99 | 1009.8 |
| 20260507005011 | 14 | 317 | 3.2 | 3.2 | 0.00 | 0.18 | 0.18 | 99 | 1009.8 |
| 20260507004508 | 14 | 303 | 0.0 | 8.0 | 0.00 | 0.18 | 0.18 | 99 | 1009.9 |
| 20260507004006 | 14 | 250 | 4.8 | 11.3 | 0.00 | 0.18 | 0.18 | 99 | 1009.7 |
| 20260507003501 | 14 | 272 | 0.0 | 8.0 | 0.00 | 0.18 | 0.18 | 99 | 1009.8 |
| 20260507002955 | 14 | 306 | 6.4 | 14.5 | 0.00 | 0.18 | 0.18 | 99 | 1009.8 |
| 20260507002453 | 14 | 342 | 3.2 | 9.7 | 0.00 | 0.18 | 0.18 | 99 | 1009.8 |
| 20260507001949 | 14 | 247 | 4.8 | 17.7 | 0.00 | 0.18 | 0.18 | 99 | 1009.6 |
| 20260507001446 | 14 | 354 | 0.0 | 9.7 | 0.00 | 0.18 | 0.18 | 99 | 1009.5 |
| 20260507000944 | 14 | 213 | 6.4 | 12.9 | 0.00 | 0.18 | 0.18 | 99 | 1009.6 |
| 20260507000439 | 14 | 292 | 11.3 | 14.5 | 0.00 | 0.18 | 0.18 | 99 | 1009.7 |
| 20260506235934 | 14 | 272 | 6.4 | 11.3 | 0.00 | 0.18 | 0.18 | 99 | 1009.7 |
| 20260506235432 | 14 | 237 | 6.4 | 12.9 | 0.00 | 0.18 | 0.18 | 99 | 1009.5 |
| 20260506234927 | 14 | 318 | 3.2 | 8.0 | 0.00 | 0.18 | 0.18 | 99 | 1009.4 |
| 20260506234426 | 14 | 238 | 3.2 | 4.8 | 0.00 | 0.18 | 0.18 | 99 | 1009.6 |
| 20260506233923 | 14 | 2 | 3.2 | 4.8 | 0.13 | 0.18 | 0.18 | 99 | 1009.2 |
| 20260506233419 | 14 | 350 | 3.2 | 4.8 | 0.13 | 0.18 | 0.18 | 99 | 1009.5 |
| 20260506232916 | 14 | 221 | 11.3 | 14.5 | 0.00 | 0.15 | 0.15 | 99 | 1009.2 |
| 20260506232412 | 14 | 312 | 3.2 | 4.8 | 0.00 | 0.15 | 0.15 | 99 | 1009.3 |
| 20260506231908 | 14 | 271 | 4.8 | 11.3 | 0.00 | 0.15 | 0.15 | 98 | 1009.3 |
| 20260506231406 | 14 | 310 | 8.0 | 9.7 | 0.00 | 0.15 | 0.15 | 98 | 1009.3 |
| 20260506230903 | 15 | 229 | 6.4 | 14.5 | 0.00 | 0.15 | 0.15 | 97 | 1009.4 |
| 20260506230400 | 15 | 327 | 3.2 | 9.7 | 0.00 | 0.15 | 0.15 | 97 | 1009.4 |
| 20260506225856 | 15 | 243 | 6.4 | 11.3 | 0.00 | 0.15 | 0.15 | 96 | 1009.3 |
| 20260506225353 | 15 | 335 | 6.4 | 11.3 | 0.00 | 0.15 | 0.15 | 96 | 1009.6 |
| 20260506224850 | 15 | 242 | 8.0 | 11.3 | 0.00 | 0.15 | 0.15 | 96 | 1009.5 |
| 20260506224348 | 15 | 207 | 6.4 | 9.7 | 0.00 | 0.15 | 0.15 | 96 | 1009.5 |
| 20260506223844 | 15 | 257 | 9.7 | 12.9 | 0.00 | 0.15 | 0.15 | 97 | 1009.2 |
| 20260506223339 | 15 | 253 | 4.8 | 8.0 | 0.00 | 0.15 | 0.15 | 97 | 1009.3 |
| 20260506222836 | 15 | 194 | 3.2 | 4.8 | 0.00 | 0.15 | 0.15 | 97 | 1009.3 |
| 20260506222332 | 15 | 286 | 4.8 | 12.9 | 0.00 | 0.15 | 0.15 | 97 | 1009.3 |
| 20260506221830 | 15 | 178 | 4.8 | 11.3 | 0.00 | 0.15 | 0.15 | 98 | 1009.5 |
| 20260506221327 | 15 | 268 | 8.0 | 16.1 | 0.00 | 0.15 | 0.15 | 99 | 1009.4 |
| 20260506220825 | 15 | 233 | 8.0 | 11.3 | 0.00 | 0.15 | 0.15 | 99 | 1009.6 |
| 20260506220320 | 15 | 292 | 3.2 | 14.5 | 0.00 | 0.15 | 0.15 | 99 | 1009.9 |
| 20260506215817 | 15 | 276 | 6.4 | 9.7 | 0.18 | 0.15 | 0.15 | 99 | 1009.9 |
| 20260506215313 | 15 | 207 | 8.0 | 11.3 | 0.18 | 0.15 | 0.15 | 98 | 1009.7 |
| 20260506214809 | 15 | 248 | 9.7 | 11.3 | 0.00 | 0.13 | 0.13 | 98 | 1009.8 |
| 20260506214305 | 15 | 176 | 1.6 | 3.2 | 0.00 | 0.13 | 0.13 | 98 | 1009.6 |
| 20260506213804 | 15 | 236 | 9.7 | 12.9 | 0.00 | 0.13 | 0.13 | 97 | 1009.8 |
| 20260506213300 | 15 | 251 | 6.4 | 9.7 | 0.00 | 0.13 | 0.13 | 97 | 1009.8 |
| 20260506212758 | 15 | 246 | 14.5 | 22.5 | 0.00 | 0.13 | 0.13 | 96 | 1010.1 |
| 20260506212254 | 15 | 256 | 6.4 | 11.3 | 0.00 | 0.13 | 0.13 | 96 | 1010.1 |
| 20260506211749 | 15 | 301 | 8.0 | 12.9 | 0.00 | 0.13 | 0.13 | 96 | 1009.9 |
| 20260506211245 | 15 | 298 | 3.2 | 9.7 | 0.00 | 0.13 | 0.13 | 97 | 1010.1 |
| 20260506210743 | 15 | 239 | 8.0 | 11.3 | 0.00 | 0.13 | 0.13 | 97 | 1010.2 |
| 20260506210239 | 15 | 183 | 8.0 | 14.5 | 0.18 | 0.13 | 0.13 | 97 | 1010.1 |
| 20260506205736 | 15 | 214 | 6.4 | 16.1 | 0.18 | 0.13 | 0.13 | 97 | 1010.3 |
| 20260506205232 | 15 | 211 | 3.2 | 14.5 | 0.13 | 0.10 | 0.10 | 96 | 1010.3 |
| 20260506204729 | 15 | 238 | 8.0 | 12.9 | 0.13 | 0.10 | 0.10 | 96 | 1010.3 |
| 20260506204226 | 15 | 241 | 11.3 | 17.7 | 0.18 | 0.08 | 0.08 | 95 | 1010.3 |
| 20260506203724 | 15 | 315 | 8.0 | 14.5 | 0.18 | 0.08 | 0.08 | 94 | 1010.2 |
| 20260506203215 | 15 | 325 | 6.4 | 20.9 | 0.00 | 0.05 | 0.05 | 93 | 1010.3 |
| 20260506202713 | 15 | 273 | 3.2 | 20.9 | 0.00 | 0.05 | 0.05 | 93 | 1010.4 |
| 20260506202209 | 15 | 9 | 1.6 | 17.7 | 0.00 | 0.05 | 0.05 | 93 | 1010.6 |
| 20260506201706 | 15 | 303 | 6.4 | 14.5 | 0.00 | 0.05 | 0.05 | 93 | 1010.6 |
| 20260506201203 | 15 | 223 | 11.3 | 16.1 | 0.00 | 0.05 | 0.05 | 93 | 1010.5 |
| 20260506200659 | 16 | 219 | 11.3 | 12.9 | 0.00 | 0.05 | 0.05 | 93 | 1010.4 |
| 20260506200156 | 16 | 270 | 4.8 | 9.7 | 0.00 | 0.05 | 0.05 | 93 | 1010.3 |
| 20260506195653 | 16 | 293 | 4.8 | 16.1 | 0.13 | 0.05 | 0.05 | 92 | 1010.4 |
| 20260506195149 | 16 | 247 | 4.8 | 9.7 | 0.00 | 0.03 | 0.03 | 91 | 1010.3 |
| 20260506194647 | 16 | 271 | 3.2 | 4.8 | 0.00 | 0.03 | 0.03 | 91 | 1010.3 |
| 20260506194143 | 16 | 295 | 6.4 | 14.5 | 0.00 | 0.03 | 0.03 | 89 | 1010.1 |
| 20260506193641 | 16 | 307 | 4.8 | 17.7 | 0.00 | 0.03 | 0.03 | 87 | 1010.3 |
| 20260506193138 | 16 | 278 | 11.3 | 22.5 | 0.18 | 0.03 | 0.03 | 86 | 1010.6 |
| 20260506192634 | 17 | 230 | 6.4 | 12.9 | 0.18 | 0.03 | 0.03 | 85 | 1010.6 |
| 20260506192130 | 17 | 297 | 8.0 | 12.9 | 0.00 | 0.00 | 0.00 | 84 | 1010.5 |
| 20260506191627 | 17 | 279 | 9.7 | 12.9 | 0.00 | 0.00 | 0.00 | 83 | 1010.5 |
| 20260506191123 | 17 | 160 | 3.2 | 16.1 | 0.00 | 0.00 | 0.00 | 83 | 1010.6 |
| 20260506190621 | 17 | 229 | 11.3 | 16.1 | 0.00 | 0.00 | 0.00 | 81 | 1010.6 |
| 20260506190118 | 17 | 269 | 8.0 | 22.5 | 0.00 | 0.00 | 0.00 | 79 | 1010.6 |
| 20260506185615 | 18 | 283 | 14.5 | 22.5 | 0.00 | 0.00 | 0.00 | 77 | 1010.7 |
| 20260506185111 | 18 | 255 | 9.7 | 20.9 | 0.00 | 0.00 | 0.00 | 75 | 1010.8 |
| 20260506184609 | 19 | 229 | 8.0 | 9.7 | 0.00 | 0.00 | 0.00 | 73 | 1010.7 |
| 20260506184106 | 19 | 262 | 8.0 | 12.9 | 0.00 | 0.00 | 0.00 | 72 | 1010.4 |
| 20260506183602 | 19 | 140 | 11.3 | 16.1 | 0.00 | 0.00 | 0.00 | 70 | 1010.6 |
| 20260506183058 | 20 | 214 | 8.0 | 20.9 | 0.00 | 0.00 | 0.00 | 70 | 1010.9 |
| 20260506182556 | 20 | 225 | 9.7 | 14.5 | 0.00 | 0.00 | 0.00 | 69 | 1010.9 |
| 20260506182053 | 20 | 195 | 9.7 | 17.7 | 0.00 | 0.00 | 0.00 | 68 | 1010.8 |
| 20260506181551 | 20 | 274 | 8.0 | 12.9 | 0.00 | 0.00 | 0.00 | 67 | 1010.8 |
| 20260506181047 | 20 | 259 | 12.9 | 20.9 | 0.00 | 0.00 | 0.00 | 66 | 1010.7 |
| 20260506180544 | 20 | 265 | 12.9 | 16.1 | 0.00 | 0.00 | 0.00 | 66 | 1010.8 |
| 20260506180040 | 20 | 222 | 16.1 | 22.5 | 0.00 | 0.00 | 0.00 | 65 | 1010.9 |
| 20260506175537 | 21 | 279 | 9.7 | 20.9 | 0.00 | 0.00 | 0.00 | 65 | 1010.9 |
| 20260506175033 | 21 | 255 | 6.4 | 11.3 | 0.00 | 0.00 | 0.00 | 65 | 1010.9 |
| 20260506174532 | 21 | 260 | 12.9 | 14.5 | 0.00 | 0.00 | 0.00 | 64 | 1010.8 |
| 20260506174028 | 21 | 298 | 9.7 | 17.7 | 0.00 | 0.00 | 0.00 | 64 | 1010.9 |
| 20260506173526 | 21 | 319 | 16.1 | 25.7 | 0.00 | 0.00 | 0.00 | 63 | 1011.2 |
| 20260506173022 | 21 | 196 | 12.9 | 35.4 | 0.00 | 0.00 | 0.00 | 63 | 1011.4 |
| 20260506172520 | 21 | 276 | 9.7 | 16.1 | 0.00 | 0.00 | 0.00 | 64 | 1011.2 |
| 20260506172016 | 21 | 233 | 4.8 | 17.7 | 0.00 | 0.00 | 0.00 | 61 | 1011.4 |
| 20260506171514 | 21 | 334 | 16.1 | 22.5 | 0.00 | 0.00 | 0.00 | 61 | 1011.2 |
| 20260506171011 | 21 | 279 | 9.7 | 20.9 | 0.00 | 0.00 | 0.00 | 61 | 1011.2 |
| 20260506170508 | 21 | 296 | 16.1 | 35.4 | 0.00 | 0.00 | 0.00 | 62 | 1011.2 |
| 20260506170006 | 21 | 229 | 4.8 | 24.1 | 0.00 | 0.00 | 0.00 | 62 | 1011.1 |
| 20260506165504 | 21 | 262 | 11.3 | 16.1 | 0.00 | 0.00 | 0.00 | 62 | 1011.0 |
| 20260506165000 | 22 | 279 | 12.9 | 32.2 | 0.00 | 0.00 | 0.00 | 61 | 1011.3 |
| 20260506164457 | 21 | 286 | 4.8 | 22.5 | 0.00 | 0.00 | 0.00 | 62 | 1011.5 |
| 20260506163954 | 21 | 228 | 12.9 | 29.0 | 0.00 | 0.00 | 0.00 | 62 | 1011.6 |
| 20260506163449 | 21 | 233 | 11.3 | 35.4 | 0.00 | 0.00 | 0.00 | 62 | 1011.8 |
| 20260506162944 | 21 | 260 | 11.3 | 20.9 | 0.00 | 0.00 | 0.00 | 63 | 1011.8 |
| 20260506162442 | 21 | 212 | 20.9 | 24.1 | 0.00 | 0.00 | 0.00 | 62 | 1011.9 |
| 20260506161934 | 21 | 231 | 8.0 | 24.1 | 0.00 | 0.00 | 0.00 | 62 | 1011.7 |
| 20260506161432 | 21 | 276 | 6.4 | 14.5 | 0.00 | 0.00 | 0.00 | 62 | 1011.9 |
| 20260506160929 | 21 | 258 | 12.9 | 22.5 | 0.00 | 0.00 | 0.00 | 62 | 1011.7 |
| 20260506160426 | 21 | 250 | 11.3 | 16.1 | 0.00 | 0.00 | 0.00 | 62 | 1011.8 |
| 20260506155923 | 21 | 219 | 14.5 | 17.7 | 0.00 | 0.00 | 0.00 | 61 | 1011.9 |
| 20260506155420 | 21 | 260 | 8.0 | 22.5 | 0.00 | 0.00 | 0.00 | 62 | 1012.0 |
| 20260506153542 | 21 | 281 | 6.4 | 17.7 | 0.00 | 0.00 | 0.00 | 64 | 1012.4 |
| 20260506153040 | 21 | 247 | 9.7 | 27.4 | 0.00 | 0.00 | 0.00 | 63 | 1012.6 |
| 20260506152537 | 22 | 247 | 14.5 | 22.5 | 0.00 | 0.00 | 0.00 | 63 | 1012.4 |
| 20260506152035 | 21 | 13 | 4.8 | 17.7 | 0.00 | 0.00 | 0.00 | 63 | 1012.7 |
| 20260506151532 | 21 | 238 | 6.4 | 12.9 | 0.00 | 0.00 | 0.00 | 65 | 1012.5 |
| 20260506151024 | 21 | 252 | 12.9 | 24.1 | 0.00 | 0.00 | 0.00 | 65 | 1012.7 |
| 20260506150520 | 21 | 187 | 3.2 | 17.7 | 0.00 | 0.00 | 0.00 | 65 | 1012.6 |
| 20260506150017 | 21 | 287 | 6.4 | 17.7 | 0.00 | 0.00 | 0.00 | 65 | 1012.6 |
| 20260506145514 | 21 | 246 | 12.9 | 17.7 | 0.00 | 0.00 | 0.00 | 66 | 1012.7 |
| 20260506145011 | 20 | 288 | 6.4 | 20.9 | 0.00 | 0.00 | 0.00 | 66 | 1012.7 |
| 20260506144507 | 21 | 237 | 22.5 | 27.4 | 0.00 | 0.00 | 0.00 | 65 | 1013.0 |
| 20260506144005 | 21 | 314 | 4.8 | 12.9 | 0.00 | 0.00 | 0.00 | 65 | 1012.4 |
| 20260506143502 | 21 | 260 | 9.7 | 33.8 | 0.00 | 0.00 | 0.00 | 66 | 1012.8 |
| 20260506143001 | 20 | 307 | 12.9 | 27.4 | 0.00 | 0.00 | 0.00 | 65 | 1012.7 |
| 20260506142458 | 20 | 276 | 9.7 | 27.4 | 0.00 | 0.00 | 0.00 | 65 | 1012.6 |
| 20260506141956 | 20 | 251 | 4.8 | 20.9 | 0.00 | 0.00 | 0.00 | 65 | 1012.3 |
| 20260506141454 | 21 | 254 | 8.0 | 24.1 | 0.00 | 0.00 | 0.00 | 65 | 1012.4 |
| 20260506140952 | 21 | 271 | 14.5 | 17.7 | 0.00 | 0.00 | 0.00 | 65 | 1012.4 |
| 20260506140449 | 21 | 30 | 1.6 | 16.1 | 0.00 | 0.00 | 0.00 | 66 | 1012.6 |
| 20260506135945 | 20 | 328 | 9.7 | 16.1 | 0.00 | 0.00 | 0.00 | 67 | 1012.5 |
| 20260506135443 | 20 | 205 | 3.2 | 16.1 | 0.00 | 0.00 | 0.00 | 68 | 1012.7 |
| 20260506134938 | 20 | 274 | 6.4 | 12.9 | 0.00 | 0.00 | 0.00 | 67 | 1012.5 |
| 20260506134435 | 20 | 232 | 3.2 | 14.5 | 0.00 | 0.00 | 0.00 | 67 | 1012.4 |
| 20260506133932 | 20 | 209 | 12.9 | 16.1 | 0.00 | 0.00 | 0.00 | 68 | 1012.4 |
| 20260506133429 | 20 | 215 | 9.7 | 29.0 | 0.00 | 0.00 | 0.00 | 68 | 1012.7 |
| 20260506132926 | 20 | 248 | 4.8 | 12.9 | 0.00 | 0.00 | 0.00 | 70 | 1012.8 |
| 20260506132423 | 20 | 239 | 4.8 | 8.0 | 0.00 | 0.00 | 0.00 | 71 | 1013.2 |
| 20260506131920 | 19 | 242 | 6.4 | 12.9 | 0.00 | 0.00 | 0.00 | 72 | 1013.2 |
| 20260506131416 | 19 | 193 | 4.8 | 17.7 | 0.00 | 0.00 | 0.00 | 73 | 1013.5 |
| 20260506130914 | 18 | 253 | 8.0 | 20.9 | 0.00 | 0.00 | 0.00 | 74 | 1013.2 |
| 20260506130410 | 18 | 227 | 3.2 | 17.7 | 0.00 | 0.00 | 0.00 | 75 | 1013.3 |
| 20260506125908 | 18 | 115 | 1.6 | 4.8 | 0.00 | 0.00 | 0.00 | 76 | 1013.0 |
| 20260506125406 | 18 | 245 | 9.7 | 11.3 | 0.00 | 0.00 | 0.00 | 75 | 1013.2 |
| 20260506124904 | 18 | 276 | 9.7 | 12.9 | 0.00 | 0.00 | 0.00 | 77 | 1013.1 |
| 20260506124401 | 17 | 257 | 9.7 | 14.5 | 0.00 | 0.00 | 0.00 | 78 | 1013.4 |
| 20260506123859 | 17 | 233 | 9.7 | 17.7 | 0.00 | 0.00 | 0.00 | 79 | 1013.1 |
| 20260506123357 | 17 | 239 | 4.8 | 4.8 | 0.00 | 0.00 | 0.00 | 79 | 1013.3 |
| 20260506122854 | 17 | 255 | 9.7 | 11.3 | 0.00 | 0.00 | 0.00 | 79 | 1013.2 |
| 20260506122350 | 17 | 288 | 12.9 | 16.1 | 0.00 | 0.00 | 0.00 | 80 | 1013.3 |
| 20260506121849 | 17 | 243 | 8.0 | 9.7 | 0.00 | 0.00 | 0.00 | 81 | 1013.0 |
| 20260506121346 | 16 | 212 | 11.3 | 14.5 | 0.00 | 0.00 | 0.00 | 82 | 1013.2 |
| 20260506120842 | 16 | 307 | 4.8 | 9.7 | 0.00 | 0.00 | 0.00 | 83 | 1013.1 |
| 20260506120340 | 16 | 183 | 3.2 | 12.9 | 0.00 | 0.00 | 0.00 | 83 | 1013.2 |
| 20260506115837 | 16 | 1 | 3.2 | 12.9 | 0.00 | 0.00 | 0.00 | 84 | 1013.5 |
| 20260506115336 | 16 | 220 | 3.2 | 20.9 | 0.00 | 0.00 | 0.00 | 85 | 1013.5 |
| 20260506114833 | 15 | 28 | 0.0 | 1.6 | 0.00 | 0.00 | 0.00 | 86 | 1013.4 |
| 20260506114331 | 15 | 319 | 3.2 | 9.7 | 0.00 | 0.00 | 0.00 | 86 | 1013.6 |
| 20260506113829 | 15 | 245 | 8.0 | 9.7 | 0.00 | 0.00 | 0.00 | 86 | 1013.8 |
| 20260506113326 | 15 | 169 | 3.2 | 14.5 | 0.00 | 0.00 | 0.00 | 86 | 1013.7 |
| 20260506112823 | 15 | 175 | 4.8 | 12.9 | 0.00 | 0.00 | 0.00 | 86 | 1014.0 |
| 20260506112320 | 15 | 304 | 4.8 | 9.7 | 0.00 | 0.00 | 0.00 | 86 | 1013.7 |
| 20260506111818 | 15 | 179 | 9.7 | 12.9 | 0.00 | 0.00 | 0.00 | 86 | 1013.7 |
| 20260506111316 | 15 | 254 | 8.0 | 12.9 | 0.00 | 0.00 | 0.00 | 86 | 1013.5 |
| 20260506110813 | 15 | 72 | 1.6 | 11.3 | 0.00 | 0.00 | 0.00 | 86 | 1013.7 |
| 20260506110310 | 15 | 204 | 4.8 | 9.7 | 0.00 | 0.00 | 0.00 | 87 | 1013.5 |